createdAt,value
2022-11-10T00:03:21.813Z,96.27661
2022-11-10T00:08:24.011Z,97.67558
2022-11-10T00:13:26.073Z,98.61486
2022-11-10T00:18:27.809Z,94.95723
2022-11-10T00:23:29.570Z,98.15378
2022-11-10T00:28:32.277Z,100
2022-11-10T00:33:33.941Z,96.59732
2022-11-10T00:38:35.643Z,98.12891
2022-11-10T00:43:37.891Z,98.9567
2022-11-10T00:48:40.293Z,95.54206
2022-11-10T00:53:42.069Z,97.21612
2022-11-10T00:58:43.868Z,95.37995
2022-11-10T01:03:45.628Z,100
2022-11-10T01:08:47.101Z,100
2022-11-10T01:13:49.154Z,100
2022-11-10T01:18:51.865Z,100
2022-11-10T01:23:53.331Z,97.66393
2022-11-10T01:28:55.181Z,100
2022-11-10T01:33:57.015Z,100
2022-11-10T01:38:58.811Z,100
2022-11-10T01:44:00.982Z,94.38926
2022-11-10T01:49:03.026Z,98.27245
2022-11-10T01:54:04.863Z,98.96411
2022-11-10T01:59:06.762Z,98.92515
2022-11-10T02:04:08.839Z,100
2022-11-10T02:09:10.580Z,98.5029
2022-11-10T02:14:12.786Z,96.69822
2022-11-10T02:19:14.714Z,97.69487
2022-11-10T02:24:16.490Z,100
2022-11-10T02:29:18.501Z,100
2022-11-10T02:34:20.252Z,100
2022-11-10T02:39:22.011Z,100
2022-11-10T02:44:24.131Z,100
2022-11-10T02:49:26.144Z,100
2022-11-10T02:54:28.014Z,100
2022-11-10T02:59:29.848Z,100
2022-11-10T03:04:31.651Z,100
2022-11-10T03:09:33.553Z,99.21222
2022-11-10T03:14:35.947Z,96.60417
2022-11-10T03:19:37.745Z,96.74332
2022-11-10T03:24:39.539Z,95.70924
2022-11-10T03:29:41.609Z,96.75812
2022-11-10T03:34:43.421Z,92.81953
2022-11-10T03:39:45.268Z,95.57804
2022-11-10T03:44:47.387Z,97.59365
2022-11-10T03:49:49.109Z,100
2022-11-10T03:54:50.888Z,100
2022-11-10T03:59:52.675Z,100
2022-11-10T04:04:54.253Z,100
2022-11-10T04:09:56.097Z,100
2022-11-10T04:14:58.106Z,100
2022-11-10T04:19:59.594Z,100
2022-11-10T04:25:01.202Z,100
2022-11-10T04:30:02.763Z,100
2022-11-10T04:35:04.333Z,100
2022-11-10T04:40:05.814Z,99.51062
2022-11-10T04:45:07.544Z,90.19051
2022-11-10T04:50:09.157Z,89.38153
2022-11-10T04:55:10.692Z,89.86936
2022-11-10T05:00:12.312Z,86.45663
2022-11-10T05:05:13.936Z,82.50804
2022-11-10T05:10:15.433Z,77.69883
2022-11-10T05:15:17.084Z,81.06757
2022-11-10T05:20:18.689Z,79.88464
2022-11-10T05:25:20.155Z,80.8801
2022-11-10T05:30:22.180Z,79.10234
2022-11-10T05:35:23.685Z,78.37766
2022-11-10T05:40:25.181Z,75.94141
2022-11-10T05:45:27.141Z,73.66154
2022-11-10T05:50:28.778Z,75.69763
2022-11-10T05:55:30.337Z,73.67822
2022-11-10T06:00:32.151Z,75.98403
2022-11-10T06:05:33.646Z,75.74785
2022-11-10T06:10:35.197Z,75.22055
2022-11-10T06:15:36.863Z,74.04643
2022-11-10T06:20:38.436Z,70.56106
2022-11-10T06:25:39.902Z,69.40173
2022-11-10T06:30:41.721Z,68.72745
2022-11-10T06:35:43.240Z,70.89858
2022-11-10T06:40:44.748Z,68.44724
2022-11-10T06:45:47.066Z,66.81664
2022-11-10T06:50:48.582Z,65.0683
2022-11-10T06:55:50.320Z,66.18686
2022-11-10T07:00:51.958Z,64.37926
2022-11-10T07:05:53.663Z,62.28267
2022-11-10T07:10:55.370Z,61.71493
2022-11-10T07:15:57.138Z,61.72429
2022-11-10T07:20:58.614Z,61.33638
2022-11-10T07:26:00.062Z,59.09474
2022-11-10T07:31:01.759Z,59.06967
2022-11-10T07:36:03.493Z,57.10971
2022-11-10T07:41:05.035Z,59.65554
2022-11-10T07:46:06.922Z,58.16877
2022-11-10T07:51:08.394Z,57.51594
2022-11-10T07:56:09.993Z,52.47808
2022-11-10T08:01:11.563Z,52.35241
2022-11-10T08:06:13.380Z,53.33604
2022-11-10T08:11:15.475Z,48.98593
2022-11-10T08:16:17.530Z,55.02944
2022-11-10T08:21:19.350Z,50.68555
2022-11-10T08:26:21.283Z,47.52124
2022-11-10T08:31:23.266Z,46.38992
2022-11-10T08:36:25.281Z,46.18929
2022-11-10T08:41:27.260Z,49.70569
2022-11-10T08:46:29.257Z,44.13792
2022-11-10T08:51:36.331Z,42.78552
2022-11-10T08:56:40.867Z,43.12012
2022-11-10T09:01:43.033Z,40.42853
2022-11-10T09:06:44.765Z,39.64027
2022-11-10T09:11:46.862Z,40.16051
2022-11-10T09:16:49.088Z,39.27692
2022-11-10T09:21:50.660Z,41.20662
2022-11-10T09:26:52.225Z,37.62578
2022-11-10T09:31:53.734Z,37.80845
2022-11-10T09:36:55.332Z,35.64059
2022-11-10T09:41:57.012Z,36.49196
2022-11-10T09:46:58.744Z,36.62481
2022-11-10T09:52:00.453Z,36.76684
2022-11-10T09:57:02.183Z,38.44923
2022-11-10T10:02:04.015Z,35.44946
2022-11-10T10:07:11.105Z,30.86781
2022-11-10T10:12:13.487Z,30.34254
2022-11-10T10:17:15.902Z,34.62173
2022-11-10T10:22:18.848Z,31.94361
2022-11-10T10:27:21.718Z,31.97872
2022-11-10T10:32:23.739Z,31.49907
2022-11-10T10:37:25.857Z,35.01655
2022-11-10T10:42:27.979Z,43.98782
2022-11-10T10:47:30.119Z,44.80563
2022-11-10T10:52:31.903Z,40.36638
2022-11-10T10:57:33.978Z,39.26126
2022-11-10T11:02:35.930Z,41.58435
2022-11-10T11:07:38.763Z,38.99251
2022-11-10T11:12:41.502Z,38.16917
2022-11-10T11:17:43.672Z,38.33606
2022-11-10T11:22:45.491Z,38.13672
2022-11-10T11:27:47.321Z,39.56524
2022-11-10T11:32:49.460Z,40.62434
2022-11-10T11:37:51.089Z,41.37053
2022-11-10T11:42:52.628Z,42.29254
2022-11-10T11:47:54.513Z,43.00159
2022-11-10T11:52:56.575Z,45.76906
2022-11-10T11:57:58.071Z,45.09014
2022-11-10T12:02:59.800Z,41.54804
2022-11-10T12:08:01.367Z,37.48627
2022-11-10T12:13:02.969Z,39.74337
2022-11-10T12:18:04.810Z,37.12957
2022-11-10T12:23:08.066Z,35.51651
2022-11-10T12:28:09.717Z,38.31999
2022-11-10T12:33:11.349Z,35.68002
2022-11-10T12:38:13.126Z,35.7322
2022-11-10T12:43:14.632Z,39.32824
2022-11-10T12:48:16.559Z,36.54385
2022-11-10T12:53:18.462Z,35.93353
2022-11-10T12:58:20.538Z,38.66001
2022-11-10T13:03:22.247Z,39.95373
2022-11-10T13:08:24.042Z,38.16894
2022-11-10T13:13:26.454Z,38.10997
2022-11-10T13:18:28.414Z,39.49645
2022-11-10T13:23:29.941Z,37.00768
2022-11-10T13:28:31.525Z,35.72511
2022-11-10T13:33:33.447Z,38.78426
2022-11-10T13:38:34.953Z,39.51261
2022-11-10T13:43:37.142Z,38.525
2022-11-10T13:48:39.168Z,38.58428
2022-11-10T13:53:44.639Z,37.45091
2022-11-10T13:58:46.442Z,40.12741
2022-11-10T14:03:48.149Z,43.49176
2022-11-10T14:08:49.785Z,46.15228
2022-11-10T14:13:51.353Z,44.55565
2022-11-10T14:18:53.311Z,44.18377
2022-11-10T14:23:54.895Z,43.24067
2022-11-10T14:28:56.458Z,41.50923
2022-11-10T14:33:58.741Z,47.29168
2022-11-10T14:39:00.267Z,53.62332
2022-11-10T14:44:02.084Z,51.5783
2022-11-10T14:49:04.203Z,52.04182
2022-11-10T14:54:06.152Z,51.69187
2022-11-10T14:59:08.327Z,49.71466
2022-11-10T15:04:10.317Z,49.84892
2022-11-10T15:09:12.093Z,48.61071
2022-11-10T15:14:13.758Z,49.7262
2022-11-10T15:19:15.513Z,48.41672
2022-11-10T15:24:17.289Z,46.28558
2022-11-10T15:29:19.877Z,47.27036
2022-11-10T15:34:21.347Z,50.9932
2022-11-10T15:39:23.000Z,55.78182
2022-11-10T15:44:25.064Z,58.27071
2022-11-10T15:49:31.435Z,61.43261
2022-11-10T15:54:33.220Z,63.72255
2022-11-10T15:59:35.085Z,65.93139
2022-11-10T16:04:38.086Z,68.63511
2022-11-10T16:09:39.914Z,69.7051
2022-11-10T16:14:41.676Z,71.98759
2022-11-10T16:19:43.726Z,71.0408
2022-11-10T16:24:45.925Z,70.51755
2022-11-10T16:29:48.142Z,72.74076
2022-11-10T16:34:49.999Z,74.81498
2022-11-10T16:39:51.541Z,74.97949
2022-11-10T16:44:53.305Z,77.20637
2022-11-10T16:49:55.073Z,77.55898
2022-11-10T16:54:56.629Z,79.98964
2022-11-10T16:59:58.352Z,78.20124
2022-11-10T17:05:00.096Z,79.89654
2022-11-10T17:10:01.748Z,77.78819
2022-11-10T17:15:03.430Z,85.28782
2022-11-10T17:20:05.347Z,81.75627
2022-11-10T17:25:07.075Z,84.33486
2022-11-10T17:30:09.075Z,84.85255
2022-11-10T17:35:10.865Z,84.6916
2022-11-10T17:40:12.684Z,83.56425
2022-11-10T17:45:15.789Z,80.252
2022-11-10T17:50:18.148Z,82.65943
2022-11-10T17:55:20.158Z,81.94
2022-11-10T18:00:22.435Z,83.11959
2022-11-10T18:05:24.270Z,80.97802
2022-11-10T18:10:26.027Z,81.23234
2022-11-10T18:15:27.953Z,80.55341
2022-11-10T18:20:30.303Z,77.81667
2022-11-10T18:25:32.177Z,78.45836
2022-11-10T18:30:35.246Z,76.02764
2022-11-10T18:35:37.691Z,74.95855
2022-11-10T18:40:39.630Z,76.92282
2022-11-10T18:45:41.733Z,79.58345
2022-11-10T18:50:46.587Z,81.50532
2022-11-10T18:55:48.645Z,83.88597
2022-11-10T19:00:50.548Z,85.71932
2022-11-10T19:05:58.237Z,81.3758
2022-11-10T19:11:00.155Z,83.75991
2022-11-10T19:16:01.660Z,84.02479
2022-11-10T19:21:03.520Z,91.48079
2022-11-10T19:26:05.881Z,89.14089
2022-11-10T19:31:07.392Z,89.84415
2022-11-10T19:36:17.619Z,88.1458
2022-11-10T19:41:24.421Z,90.89505
2022-11-10T19:46:26.440Z,87.82659
2022-11-10T19:51:29.098Z,88.63944
2022-11-10T19:56:32.168Z,95.79895
2022-11-10T20:01:34.238Z,94.12614
2022-11-10T20:06:36.184Z,97.15066
2022-11-10T20:11:46.022Z,97.98499
2022-11-10T20:16:47.855Z,94.24825
2022-11-10T20:21:55.192Z,97.29141
2022-11-10T20:26:56.667Z,94.12136
2022-11-10T20:31:58.171Z,94.0212
2022-11-10T20:37:00.013Z,92.69464
2022-11-10T20:42:01.474Z,91.78538
2022-11-10T20:47:04.069Z,93.03402
2022-11-10T20:52:17.598Z,90.53575
2022-11-10T20:57:19.177Z,89.53317
2022-11-10T21:02:20.781Z,94.12875
2022-11-10T21:07:22.310Z,93.09408
2022-11-10T21:12:23.762Z,92.61423
2022-11-10T21:17:26.736Z,89.75741
2022-11-10T21:22:28.759Z,97.73607
2022-11-10T21:27:30.428Z,96.935
2022-11-10T21:32:32.032Z,93.43285
2022-11-10T21:37:36.349Z,93.94805
2022-11-10T21:42:37.930Z,93.44678
2022-11-10T21:47:39.955Z,91.11861
2022-11-10T21:52:48.643Z,91.67288
2022-11-10T21:57:50.341Z,90.91727
2022-11-10T22:02:51.849Z,90.57349
2022-11-10T22:07:53.309Z,91.60158
2022-11-10T22:12:54.952Z,89.43744
2022-11-10T22:17:56.639Z,91.33298
2022-11-10T22:22:58.335Z,91.58212
2022-11-10T22:27:59.829Z,91.90653
2022-11-10T22:33:02.031Z,92.35254
2022-11-10T22:38:03.598Z,95.20829
2022-11-10T22:43:05.398Z,99.10159
2022-11-10T22:48:07.166Z,99.64411
2022-11-10T22:53:09.520Z,99.26145
2022-11-10T22:58:11.642Z,100
2022-11-10T23:03:13.514Z,100
2022-11-10T23:08:16.034Z,100
2022-11-10T23:13:17.822Z,100
2022-11-10T23:18:19.754Z,97.94228
2022-11-10T23:23:22.130Z,100
2022-11-10T23:28:24.246Z,100
2022-11-10T23:33:31.385Z,100
2022-11-10T23:38:34.834Z,100
2022-11-10T23:43:36.893Z,100
2022-11-10T23:48:38.727Z,100
2022-11-10T23:53:40.938Z,100
2022-11-10T23:58:43.294Z,100
